createdAt,value
2022-09-07T02:15:25.284Z,96009.28
2022-09-07T02:17:59.105Z,96004.63
2022-09-07T02:20:33.224Z,96010.13
2022-09-07T02:23:04.637Z,96007.66
2022-09-07T02:25:41.973Z,96010.94
2022-09-07T02:28:12.432Z,96006.00
2022-09-07T02:30:39.173Z,96003.38
2022-09-07T02:33:06.404Z,96005.22
2022-09-07T02:35:33.548Z,95998.50
2022-09-07T02:38:04.431Z,96003.19
2022-09-07T02:55:50.904Z,95989.50
2022-09-07T02:58:39.470Z,95988.09
2022-09-07T03:01:37.537Z,95973.19
2022-09-07T03:04:19.353Z,95987.47
2022-09-07T03:06:59.610Z,95986.81
2022-09-07T03:09:32.604Z,95984.78
2022-09-07T03:12:03.132Z,95982.31
2022-09-07T03:17:04.902Z,95975.81
2022-09-07T03:19:31.516Z,95970.91
2022-09-07T03:21:58.081Z,95967.22
2022-09-07T03:24:24.730Z,95962.31
2022-09-07T03:26:54.171Z,95967.63
2022-09-07T03:29:21.101Z,95963.13
2022-09-07T03:31:47.713Z,95964.75
2022-09-07T03:42:59.132Z,95963.69
2022-09-07T03:45:25.705Z,95973.69
2022-09-07T03:47:52.390Z,95979.00
2022-09-07T03:59:14.019Z,95981.81
2022-09-07T04:01:40.742Z,95984.03
2022-09-07T04:04:07.344Z,95989.13
2022-09-07T04:06:34.002Z,95988.75
2022-09-07T04:29:30.073Z,95998.22
2022-09-07T04:31:56.657Z,96003.13
2022-09-07T04:34:23.267Z,96004.50
2022-09-07T04:36:49.809Z,96008.38
2022-09-07T05:24:35.043Z,96007.56
2022-09-07T05:27:02.862Z,96003.88
2022-09-07T05:32:16.538Z,96012.03
2022-09-07T05:34:43.184Z,95999.81
2022-09-07T05:37:09.818Z,96008.00
2022-09-07T05:39:36.423Z,96000.66
2022-09-07T05:42:03.124Z,95997.34
2022-09-07T06:03:49.032Z,95985.56
2022-09-07T06:06:18.853Z,95986.56
2022-09-07T06:08:49.017Z,95984.91
2022-09-07T06:56:19.177Z,96004.25
2022-09-07T06:58:46.358Z,95999.44
2022-09-07T07:01:14.139Z,95992.56
2022-09-07T07:03:41.842Z,96005.53
2022-09-07T07:06:09.032Z,96002.47
2022-09-07T07:08:36.379Z,95999.50
2022-09-07T07:11:05.757Z,96003.97
2022-09-07T07:13:32.376Z,96001.81
2022-09-07T07:16:04.900Z,96004.50
2022-09-07T07:20:56.636Z,96000.31
2022-09-07T07:23:23.261Z,95999.97
2022-09-07T07:25:50.015Z,95994.31
2022-09-07T07:31:09.461Z,95987.09
2022-09-07T07:33:38.966Z,95985.56
2022-09-07T07:36:17.767Z,95994.50
2022-09-07T07:39:03.349Z,95987.19
2022-09-07T07:58:06.011Z,95980.03
2022-09-07T08:00:52.901Z,95983.13
2022-09-07T08:03:19.070Z,95978.31
2022-09-07T08:05:45.574Z,95983.16
2022-09-07T08:08:12.183Z,95975.41
2022-09-07T08:10:38.951Z,95979.69
2022-09-07T08:13:05.673Z,95983.94
2022-09-07T08:15:32.215Z,95979.31
2022-09-07T08:17:59.019Z,95969.75
2022-09-07T08:20:25.515Z,95971.59
2022-09-07T08:22:52.240Z,95973.63
2022-09-07T08:25:19.351Z,95963.22
2022-09-07T08:27:45.818Z,95952.69
2022-09-07T09:05:23.153Z,95940.09
2022-09-07T09:08:06.938Z,95934.47
2022-09-07T09:10:42.248Z,95941.97
2022-09-07T09:13:19.482Z,95938.78
2022-09-07T09:19:13.408Z,95932.16
2022-09-07T09:21:40.720Z,95926.81
2022-09-07T09:24:34.008Z,95929.53
2022-09-07T09:27:00.482Z,95919.88
2022-09-07T09:29:26.960Z,95919.41
2022-09-07T09:31:53.666Z,95922.63
2022-09-07T09:34:24.005Z,95920.50
2022-09-07T09:36:54.808Z,95914.03
2022-09-07T09:39:30.481Z,95918.88
2022-09-07T09:42:14.344Z,95915.66
2022-09-07T09:44:42.408Z,95909.75
2022-09-07T09:47:30.255Z,95914.06
2022-09-07T09:49:59.626Z,95907.03
2022-09-07T09:52:30.162Z,95908.41
2022-09-07T09:55:17.283Z,95904.88
2022-09-07T10:03:59.727Z,95898.34
2022-09-07T10:06:27.921Z,95898.06
2022-09-07T10:09:00.778Z,95890.22
2022-09-07T10:14:42.056Z,95893.13
2022-09-07T10:19:43.101Z,95891.72
2022-09-07T10:22:51.676Z,95889.00
2022-09-07T10:25:37.450Z,95892.19
2022-09-07T10:28:06.227Z,95881.38
2022-09-07T10:30:46.160Z,95887.75
2022-09-07T10:33:42.330Z,95890.66
2022-09-07T10:36:47.383Z,95895.28
2022-09-07T10:39:22.060Z,95893.16
2022-09-07T10:42:21.736Z,95898.00
2022-09-07T10:45:19.598Z,95891.84
2022-09-07T10:48:16.313Z,95901.25
2022-09-07T10:50:53.631Z,95890.16
2022-09-07T10:57:08.275Z,95889.09
2022-09-07T11:03:32.685Z,95878.53
2022-09-07T11:06:05.622Z,95885.19
2022-09-07T11:15:03.823Z,95885.16
2022-09-07T11:17:34.898Z,95880.06
2022-09-07T11:20:19.983Z,95880.63
2022-09-07T11:23:18.637Z,95877.69
2022-09-07T11:26:04.141Z,95881.47
2022-09-07T11:28:47.627Z,95880.09
2022-09-07T11:31:37.117Z,95881.19
2022-09-07T11:34:24.979Z,95884.94
2022-09-07T11:37:13.853Z,95880.66
2022-09-07T11:39:46.097Z,95873.13
2022-09-07T11:42:48.293Z,95879.06
2022-09-07T11:45:30.852Z,95878.22
2022-09-07T11:48:31.044Z,95870.13
2022-09-07T11:51:21.294Z,95867.66
2022-09-07T11:53:56.152Z,95872.47
2022-09-07T11:56:38.169Z,95871.13
2022-09-07T11:59:36.818Z,95859.97
2022-09-07T12:02:42.322Z,95863.09
2022-09-07T12:05:43.952Z,95852.31
2022-09-07T12:08:41.418Z,95855.78
2022-09-07T12:11:10.953Z,95852.25
2022-09-07T12:13:46.594Z,95850.56
2022-09-07T12:16:13.161Z,95848.97
2022-09-07T12:19:03.974Z,95857.13
2022-09-07T12:21:51.312Z,95857.16
2022-09-07T12:24:41.404Z,95853.94
2022-09-07T12:27:30.557Z,95861.50
2022-09-07T12:29:56.977Z,95852.34
2022-09-07T12:32:57.140Z,95860.97
2022-09-07T12:35:33.713Z,95859.38
2022-09-07T12:38:13.605Z,95865.88
2022-09-07T12:40:46.593Z,95861.56
2022-09-07T12:43:13.122Z,95863.47
2022-09-07T12:45:39.618Z,95862.13
2022-09-07T12:48:15.443Z,95856.22
2022-09-07T12:51:03.633Z,95855.97
2022-09-07T12:53:44.863Z,95858.91
2022-09-07T12:56:41.957Z,95858.91
2022-09-07T12:59:40.177Z,95861.63
2022-09-07T13:02:06.686Z,95855.16
2022-09-07T13:04:36.138Z,95858.91
2022-09-07T13:07:27.424Z,95853.84
2022-09-07T13:10:20.763Z,95856.25
2022-09-07T13:12:54.776Z,95865.44
2022-09-07T13:15:46.970Z,95865.94
2022-09-07T13:18:25.909Z,95854.66
2022-09-07T13:21:07.249Z,95855.19
2022-09-07T13:23:35.862Z,95854.13
2022-09-07T13:26:04.748Z,95842.00
2022-09-07T13:28:54.779Z,95839.59
2022-09-07T13:31:48.502Z,95850.94
2022-09-07T13:34:49.528Z,95852.59
2022-09-07T13:37:25.871Z,95853.13
2022-09-07T13:39:55.173Z,95855.25
2022-09-07T13:42:21.630Z,95851.16
2022-09-07T13:44:54.608Z,95845.66
2022-09-07T13:47:55.884Z,95846.94
2022-09-07T13:50:45.037Z,95850.06
2022-09-07T13:53:20.458Z,95844.09
2022-09-07T13:56:16.913Z,95851.69
2022-09-07T13:58:48.033Z,95849.03
2022-09-07T14:01:32.979Z,95858.75
2022-09-07T14:04:07.469Z,95852.59
2022-09-07T14:06:38.352Z,95847.72
2022-09-07T14:09:13.746Z,95848.84
2022-09-07T14:11:41.823Z,95841.56
2022-09-07T14:14:20.347Z,95849.13
2022-09-07T14:17:01.594Z,95848.53
2022-09-07T14:19:47.861Z,95844.75
2022-09-07T14:22:23.292Z,95851.78
2022-09-07T14:24:55.644Z,95850.16
2022-09-07T14:27:22.121Z,95854.75
2022-09-07T14:29:48.676Z,95852.31
2022-09-07T14:32:24.185Z,95849.56
2022-09-07T14:34:52.225Z,95840.81
2022-09-07T14:37:22.236Z,95840.78
2022-09-07T14:39:50.758Z,95831.81
2022-09-07T14:42:22.893Z,95836.44
2022-09-07T14:44:50.263Z,95836.44
2022-09-07T14:47:29.301Z,95834.78
2022-09-07T14:49:58.228Z,95833.19
2022-09-07T14:52:42.472Z,95835.91
2022-09-07T14:55:44.952Z,95829.94
2022-09-07T14:58:14.330Z,95827.81
2022-09-07T15:00:43.657Z,95832.09
2022-09-07T15:03:32.146Z,95833.50
2022-09-07T15:06:01.454Z,95829.97
2022-09-07T15:08:44.438Z,95829.75
2022-09-07T15:11:36.176Z,95817.34
2022-09-07T15:14:08.706Z,95826.50
2022-09-07T15:16:39.262Z,95821.94
2022-09-07T15:19:14.959Z,95821.94
2022-09-07T15:21:42.572Z,95819.28
2022-09-07T15:24:09.773Z,95821.44
2022-09-07T15:29:29.751Z,95814.41
2022-09-07T15:32:03.279Z,95805.72
2022-09-07T15:34:31.470Z,95803.78
2022-09-07T15:37:00.216Z,95810.78
2022-09-07T15:39:29.774Z,95807.50
2022-09-07T15:41:57.814Z,95812.63
2022-09-07T15:44:28.025Z,95815.06
2022-09-07T15:49:46.027Z,95806.97
2022-09-07T15:52:15.957Z,95817.25
2022-09-07T15:55:00.838Z,95810.22
2022-09-07T16:00:15.895Z,95814.81
2022-09-07T16:05:31.162Z,95812.97
2022-09-07T16:10:44.856Z,95813.94
2022-09-07T16:13:16.371Z,95812.09
2022-09-07T16:15:47.959Z,95813.50
2022-09-07T16:18:17.461Z,95815.41
2022-09-07T16:20:44.328Z,95804.94
2022-09-07T16:23:15.016Z,95809.13
2022-09-07T16:25:43.404Z,95801.91
2022-09-07T16:28:10.873Z,95803.59
2022-09-07T16:30:40.710Z,95803.41
2022-09-07T16:33:07.852Z,95807.28
2022-09-07T16:35:34.546Z,95806.00
2022-09-07T16:40:50.118Z,95823.38
2022-09-07T16:43:17.128Z,95821.00
2022-09-07T16:48:32.117Z,95824.56
2022-09-07T16:51:02.044Z,95828.66
2022-09-07T16:53:31.236Z,95825.47
2022-09-07T16:56:02.340Z,95827.38
2022-09-07T16:58:37.526Z,95827.09
2022-09-07T17:01:16.703Z,95825.75
2022-09-07T17:03:44.130Z,95830.63
2022-09-07T17:06:13.958Z,95823.66
2022-09-07T17:08:41.450Z,95829.59
2022-09-07T17:11:14.209Z,95833.34
2022-09-07T17:13:41.919Z,95838.19
2022-09-07T17:16:12.596Z,95832.53
2022-09-07T17:21:33.202Z,95838.16
2022-09-07T17:24:00.563Z,95842.13
2022-09-07T17:26:27.514Z,95847.22
2022-09-07T17:28:56.656Z,95844.53
2022-09-07T17:34:21.148Z,95858.16
2022-09-07T17:36:48.146Z,95856.25
2022-09-07T17:39:17.267Z,95857.81
2022-09-07T17:41:45.602Z,95856.13
2022-09-07T17:44:12.418Z,95858.47
2022-09-07T17:46:39.212Z,95862.44
2022-09-07T17:49:09.609Z,95853.81
2022-09-07T17:51:36.352Z,95860.72
2022-09-07T17:54:09.643Z,95859.06
2022-09-07T17:56:36.598Z,95862.00
2022-09-07T18:01:50.915Z,95864.63
2022-09-07T18:04:17.614Z,95872.88
2022-09-07T18:06:44.192Z,95863.69
2022-09-07T18:09:11.106Z,95880.81
2022-09-07T18:11:46.398Z,95870.50
2022-09-07T18:14:14.819Z,95880.22
2022-09-07T18:16:43.032Z,95880.41
2022-09-07T18:19:11.551Z,95879.22
2022-09-07T18:21:40.930Z,95877.56
2022-09-07T18:24:19.439Z,95876.22
2022-09-07T18:26:51.492Z,95882.81
2022-09-07T18:29:33.027Z,95878.47
2022-09-07T18:32:08.667Z,95867.47
2022-09-07T18:34:37.046Z,95867.41
2022-09-07T18:37:03.840Z,95874.28
2022-09-07T18:39:30.501Z,95872.06
2022-09-07T18:41:57.241Z,95864.22
2022-09-07T18:47:21.067Z,95873.38
2022-09-07T18:49:49.554Z,95854.53
2022-09-07T18:55:03.677Z,95862.47
2022-09-07T18:57:30.246Z,95865.06
2022-09-07T18:59:56.914Z,95856.94
2022-09-07T19:02:23.476Z,95854.13
2022-09-07T19:07:36.510Z,95859.34
2022-09-07T19:10:06.278Z,95861.38
2022-09-07T19:12:32.757Z,95862.34
2022-09-07T19:14:59.231Z,95858.00
2022-09-07T19:17:25.732Z,95845.69
2022-09-07T19:19:52.921Z,95843.81
2022-09-07T19:22:19.435Z,95850.97
2022-09-07T19:24:45.918Z,95847.66
2022-09-07T19:27:12.444Z,95850.56
2022-09-07T19:29:38.968Z,95856.06
2022-09-07T19:32:06.926Z,95849.53
2022-09-07T19:34:36.549Z,95849.47
2022-09-07T19:37:05.704Z,95853.09
2022-09-07T19:39:32.262Z,95853.50
2022-09-07T19:41:58.855Z,95859.88
2022-09-07T19:44:25.355Z,95858.25
2022-09-07T19:46:52.080Z,95854.66
2022-09-07T19:49:18.646Z,95855.88
2022-09-07T19:51:45.911Z,95856.84
2022-09-07T19:54:13.688Z,95857.66
2022-09-07T19:56:42.761Z,95867.44
2022-09-07T19:59:09.516Z,95860.06
2022-09-07T20:01:36.287Z,95857.56
2022-09-07T20:04:05.835Z,95857.47
2022-09-07T20:06:33.466Z,95847.56
2022-09-07T20:09:01.416Z,95853.16
2022-09-07T20:11:28.725Z,95855.19
2022-09-07T20:13:57.141Z,95855.31
2022-09-07T20:16:24.616Z,95846.44
2022-09-07T20:18:51.556Z,95850.59
2022-09-07T20:21:24.697Z,95855.84
2022-09-07T20:23:51.746Z,95844.28
2022-09-07T20:26:20.761Z,95852.03
2022-09-07T20:29:01.962Z,95862.16
2022-09-07T20:31:39.072Z,95853.56
2022-09-07T20:34:05.595Z,95853.00
2022-09-07T20:36:32.128Z,95852.91
2022-09-07T20:38:58.625Z,95842.13
2022-09-07T20:41:31.330Z,95852.81
2022-09-07T20:44:00.175Z,95856.63
2022-09-07T20:46:28.882Z,95862.09
2022-09-07T20:48:55.911Z,95847.03
2022-09-07T20:51:22.528Z,95856.63
2022-09-07T20:53:50.003Z,95860.94
2022-09-07T20:56:19.272Z,95857.00
2022-09-07T20:58:47.306Z,95856.19
2022-09-07T21:01:19.519Z,95851.69
2022-09-07T21:03:51.325Z,95851.91
2022-09-07T21:06:19.045Z,95852.94
2022-09-07T21:08:47.433Z,95843.78
2022-09-07T21:11:22.460Z,95839.84
2022-09-07T21:13:59.509Z,95835.47
2022-09-07T21:16:27.185Z,95842.31
2022-09-07T21:18:56.163Z,95841.38
2022-09-07T21:21:24.386Z,95830.38
2022-09-07T21:24:01.751Z,95833.28
2022-09-07T21:26:28.804Z,95837.25
2022-09-07T21:31:33.447Z,95839.69
2022-09-07T21:34:01.603Z,95844.66
2022-09-07T21:36:28.854Z,95839.47
2022-09-07T21:38:55.872Z,95848.38
2022-09-07T21:43:59.686Z,95850.22
2022-09-07T21:46:27.577Z,95852.69
2022-09-07T21:48:55.727Z,95856.34
2022-09-07T21:54:01.354Z,95861.00
2022-09-07T21:56:29.486Z,95864.59
2022-09-07T21:58:57.941Z,95856.47
2022-09-07T22:03:57.656Z,95855.19
2022-09-07T22:06:24.692Z,95856.84
2022-09-07T22:08:51.254Z,95854.00
2022-09-07T22:11:19.971Z,95850.44
2022-09-07T22:13:46.724Z,95854.25
2022-09-07T22:16:14.591Z,95843.47
2022-09-07T22:18:45.596Z,95856.78
2022-09-07T22:42:31.299Z,95830.25
2022-09-07T22:44:58.804Z,95836.41
2022-09-07T22:47:25.726Z,95832.03
2022-09-07T22:49:52.477Z,95833.66
2022-09-07T22:52:18.977Z,95827.19
2022-09-07T22:54:45.806Z,95834.44
2022-09-07T22:57:12.295Z,95828.63
2022-09-07T22:59:38.842Z,95835.19
2022-09-07T23:02:14.403Z,95827.22
2022-09-07T23:04:41.396Z,95831.28
2022-09-07T23:07:08.302Z,95828.84
2022-09-07T23:09:34.849Z,95829.28
2022-09-07T23:12:01.563Z,95822.81
2022-09-07T23:14:28.106Z,95817.94
2022-09-07T23:16:54.674Z,95813.88
2022-09-07T23:19:21.559Z,95812.63
2022-09-07T23:21:48.369Z,95802.06
2022-09-07T23:24:17.169Z,95809.91
2022-09-07T23:26:44.088Z,95812.38
2022-09-07T23:29:12.961Z,95806.69
2022-09-07T23:31:40.289Z,95806.56
2022-09-07T23:34:07.742Z,95807.81
2022-09-07T23:36:34.582Z,95807.56
2022-09-07T23:39:01.428Z,95819.47
2022-09-07T23:41:28.481Z,95817.25
2022-09-07T23:43:55.418Z,95826.28
2022-09-07T23:46:22.217Z,95825.22
2022-09-07T23:48:49.140Z,95822.22
2022-09-07T23:51:21.302Z,95810.19
2022-09-07T23:53:50.793Z,95810.19
2022-09-07T23:56:17.314Z,95812.63
2022-09-07T23:58:44.029Z,95814.31
